sensor_id;sensor_type;location;lat;lon;timestamp;P1;durP1;ratioP1;P2;durP2;ratioP2
32786;SDS011;19139;49.372;8.580;2023-11-19T00:02:12;3.47;;;1.47;;
32786;SDS011;19139;49.372;8.580;2023-11-19T00:04:39;1.60;;;1.20;;
32786;SDS011;19139;49.372;8.580;2023-11-19T00:07:07;1.17;;;1.07;;
32786;SDS011;19139;49.372;8.580;2023-11-19T00:09:36;1.80;;;1.10;;
32786;SDS011;19139;49.372;8.580;2023-11-19T00:12:04;2.03;;;1.47;;
32786;SDS011;19139;49.372;8.580;2023-11-19T00:14:31;1.47;;;1.13;;
32786;SDS011;19139;49.372;8.580;2023-11-19T00:16:58;2.57;;;1.50;;
32786;SDS011;19139;49.372;8.580;2023-11-19T00:19:25;3.27;;;1.50;;
32786;SDS011;19139;49.372;8.580;2023-11-19T00:21:52;3.20;;;1.53;;
32786;SDS011;19139;49.372;8.580;2023-11-19T00:24:19;2.00;;;1.40;;
32786;SDS011;19139;49.372;8.580;2023-11-19T00:26:46;1.97;;;1.30;;
32786;SDS011;19139;49.372;8.580;2023-11-19T00:29:13;2.60;;;1.93;;
32786;SDS011;19139;49.372;8.580;2023-11-19T00:31:41;2.57;;;1.33;;
32786;SDS011;19139;49.372;8.580;2023-11-19T00:34:08;3.67;;;1.80;;
32786;SDS011;19139;49.372;8.580;2023-11-19T00:36:36;1.90;;;1.23;;
32786;SDS011;19139;49.372;8.580;2023-11-19T00:39:03;2.20;;;1.27;;
32786;SDS011;19139;49.372;8.580;2023-11-19T00:41:31;2.00;;;1.70;;
32786;SDS011;19139;49.372;8.580;2023-11-19T00:43:59;2.47;;;1.50;;
32786;SDS011;19139;49.372;8.580;2023-11-19T00:46:26;1.60;;;1.50;;
32786;SDS011;19139;49.372;8.580;2023-11-19T00:48:53;1.17;;;1.00;;
32786;SDS011;19139;49.372;8.580;2023-11-19T00:51:21;1.77;;;1.30;;
32786;SDS011;19139;49.372;8.580;2023-11-19T00:53:48;2.00;;;1.20;;
32786;SDS011;19139;49.372;8.580;2023-11-19T00:56:15;1.37;;;1.20;;
32786;SDS011;19139;49.372;8.580;2023-11-19T00:58:43;1.63;;;1.33;;
32786;SDS011;19139;49.372;8.580;2023-11-19T01:01:11;1.20;;;1.10;;
32786;SDS011;19139;49.372;8.580;2023-11-19T01:03:38;1.67;;;1.00;;
32786;SDS011;19139;49.372;8.580;2023-11-19T01:06:06;1.90;;;1.33;;
32786;SDS011;19139;49.372;8.580;2023-11-19T01:08:34;1.50;;;1.20;;
32786;SDS011;19139;49.372;8.580;2023-11-19T01:11:02;1.73;;;1.30;;
32786;SDS011;19139;49.372;8.580;2023-11-19T01:13:30;1.97;;;1.23;;
32786;SDS011;19139;49.372;8.580;2023-11-19T01:15:57;1.93;;;1.20;;
32786;SDS011;19139;49.372;8.580;2023-11-19T01:18:24;1.80;;;1.20;;
32786;SDS011;19139;49.372;8.580;2023-11-19T01:20:51;1.67;;;1.10;;
32786;SDS011;19139;49.372;8.580;2023-11-19T01:23:18;1.53;;;1.13;;
32786;SDS011;19139;49.372;8.580;2023-11-19T01:25:46;1.23;;;1.00;;
32786;SDS011;19139;49.372;8.580;2023-11-19T01:28:14;2.27;;;1.50;;
32786;SDS011;19139;49.372;8.580;2023-11-19T01:30:41;2.73;;;1.03;;
32786;SDS011;19139;49.372;8.580;2023-11-19T01:33:08;1.77;;;1.03;;
32786;SDS011;19139;49.372;8.580;2023-11-19T01:35:35;1.63;;;1.00;;
32786;SDS011;19139;49.372;8.580;2023-11-19T01:38:02;1.40;;;1.30;;
32786;SDS011;19139;49.372;8.580;2023-11-19T01:40:30;2.33;;;1.23;;
32786;SDS011;19139;49.372;8.580;2023-11-19T01:42:57;1.13;;;0.93;;
32786;SDS011;19139;49.372;8.580;2023-11-19T01:45:27;1.73;;;1.00;;
32786;SDS011;19139;49.372;8.580;2023-11-19T01:47:55;1.80;;;1.37;;
32786;SDS011;19139;49.372;8.580;2023-11-19T01:50:23;1.57;;;1.20;;
32786;SDS011;19139;49.372;8.580;2023-11-19T01:52:53;1.50;;;1.17;;
32786;SDS011;19139;49.372;8.580;2023-11-19T01:55:23;3.27;;;1.40;;
32786;SDS011;19139;49.372;8.580;2023-11-19T01:57:51;1.87;;;1.00;;
32786;SDS011;19139;49.372;8.580;2023-11-19T02:00:19;1.03;;;0.67;;
32786;SDS011;19139;49.372;8.580;2023-11-19T02:02:47;1.10;;;1.00;;
32786;SDS011;19139;49.372;8.580;2023-11-19T02:05:15;2.30;;;1.30;;
32786;SDS011;19139;49.372;8.580;2023-11-19T02:07:42;1.87;;;1.20;;
32786;SDS011;19139;49.372;8.580;2023-11-19T02:10:10;2.07;;;1.80;;
32786;SDS011;19139;49.372;8.580;2023-11-19T02:12:42;1.43;;;1.20;;
32786;SDS011;19139;49.372;8.580;2023-11-19T02:15:10;1.23;;;0.83;;
32786;SDS011;19139;49.372;8.580;2023-11-19T02:17:38;1.30;;;0.80;;
32786;SDS011;19139;49.372;8.580;2023-11-19T02:20:05;2.10;;;1.20;;
32786;SDS011;19139;49.372;8.580;2023-11-19T02:22:35;1.53;;;1.30;;
32786;SDS011;19139;49.372;8.580;2023-11-19T02:25:06;1.73;;;1.20;;
32786;SDS011;19139;49.372;8.580;2023-11-19T02:30:23;2.23;;;1.10;;
32786;SDS011;19139;49.372;8.580;2023-11-19T02:32:58;1.23;;;0.60;;
32786;SDS011;19139;49.372;8.580;2023-11-19T02:35:27;1.20;;;0.90;;
32786;SDS011;19139;49.372;8.580;2023-11-19T02:37:57;1.27;;;1.07;;
32786;SDS011;19139;49.372;8.580;2023-11-19T02:40:25;1.83;;;1.00;;
32786;SDS011;19139;49.372;8.580;2023-11-19T02:42:52;1.27;;;1.03;;
32786;SDS011;19139;49.372;8.580;2023-11-19T02:45:22;1.23;;;1.03;;
32786;SDS011;19139;49.372;8.580;2023-11-19T02:47:49;1.10;;;1.00;;
32786;SDS011;19139;49.372;8.580;2023-11-19T02:50:17;2.43;;;1.23;;
32786;SDS011;19139;49.372;8.580;2023-11-19T02:52:51;1.27;;;1.13;;
32786;SDS011;19139;49.372;8.580;2023-11-19T02:55:19;1.73;;;1.13;;
32786;SDS011;19139;49.372;8.580;2023-11-19T02:57:47;1.20;;;1.00;;
32786;SDS011;19139;49.372;8.580;2023-11-19T03:00:15;1.23;;;1.00;;
32786;SDS011;19139;49.372;8.580;2023-11-19T03:02:46;1.10;;;1.00;;
32786;SDS011;19139;49.372;8.580;2023-11-19T03:05:14;1.10;;;0.80;;
32786;SDS011;19139;49.372;8.580;2023-11-19T03:07:43;1.03;;;0.90;;
32786;SDS011;19139;49.372;8.580;2023-11-19T03:10:10;1.17;;;0.90;;
32786;SDS011;19139;49.372;8.580;2023-11-19T03:12:41;1.17;;;0.90;;
32786;SDS011;19139;49.372;8.580;2023-11-19T03:15:08;1.50;;;1.10;;
32786;SDS011;19139;49.372;8.580;2023-11-19T03:17:36;1.43;;;1.00;;
32786;SDS011;19139;49.372;8.580;2023-11-19T03:20:05;1.20;;;0.90;;
32786;SDS011;19139;49.372;8.580;2023-11-19T03:22:32;1.97;;;1.13;;
32786;SDS011;19139;49.372;8.580;2023-11-19T03:25:00;1.20;;;0.90;;
32786;SDS011;19139;49.372;8.580;2023-11-19T03:27:27;1.37;;;1.07;;
32786;SDS011;19139;49.372;8.580;2023-11-19T03:29:54;1.23;;;0.83;;
32786;SDS011;19139;49.372;8.580;2023-11-19T03:32:21;1.53;;;1.03;;
32786;SDS011;19139;49.372;8.580;2023-11-19T03:34:48;1.50;;;1.13;;
32786;SDS011;19139;49.372;8.580;2023-11-19T03:37:15;1.63;;;0.90;;
32786;SDS011;19139;49.372;8.580;2023-11-19T03:39:43;1.10;;;1.00;;
32786;SDS011;19139;49.372;8.580;2023-11-19T03:42:10;1.47;;;1.13;;
32786;SDS011;19139;49.372;8.580;2023-11-19T03:44:39;1.67;;;0.97;;
32786;SDS011;19139;49.372;8.580;2023-11-19T03:47:06;1.87;;;1.00;;
32786;SDS011;19139;49.372;8.580;2023-11-19T03:49:33;1.10;;;0.80;;
32786;SDS011;19139;49.372;8.580;2023-11-19T03:52:00;1.27;;;1.17;;
32786;SDS011;19139;49.372;8.580;2023-11-19T03:54:27;1.40;;;1.10;;
32786;SDS011;19139;49.372;8.580;2023-11-19T03:56:55;1.33;;;0.87;;
32786;SDS011;19139;49.372;8.580;2023-11-19T03:59:22;1.80;;;1.00;;
32786;SDS011;19139;49.372;8.580;2023-11-19T04:01:49;2.03;;;1.00;;
32786;SDS011;19139;49.372;8.580;2023-11-19T04:04:17;1.20;;;0.73;;
32786;SDS011;19139;49.372;8.580;2023-11-19T04:06:45;1.10;;;0.90;;
32786;SDS011;19139;49.372;8.580;2023-11-19T04:09:12;1.23;;;1.03;;
32786;SDS011;19139;49.372;8.580;2023-11-19T04:11:39;1.20;;;0.93;;
32786;SDS011;19139;49.372;8.580;2023-11-19T04:14:06;0.97;;;0.90;;
32786;SDS011;19139;49.372;8.580;2023-11-19T04:16:33;1.40;;;1.00;;
32786;SDS011;19139;49.372;8.580;2023-11-19T04:19:00;1.33;;;0.80;;
32786;SDS011;19139;49.372;8.580;2023-11-19T04:21:27;1.10;;;0.80;;
32786;SDS011;19139;49.372;8.580;2023-11-19T04:23:54;2.00;;;1.17;;
32786;SDS011;19139;49.372;8.580;2023-11-19T04:26:22;0.80;;;0.80;;
32786;SDS011;19139;49.372;8.580;2023-11-19T04:28:49;1.10;;;0.83;;
32786;SDS011;19139;49.372;8.580;2023-11-19T04:31:16;1.43;;;0.70;;
32786;SDS011;19139;49.372;8.580;2023-11-19T04:33:43;0.90;;;0.70;;
32786;SDS011;19139;49.372;8.580;2023-11-19T04:36:10;0.80;;;0.70;;
32786;SDS011;19139;49.372;8.580;2023-11-19T04:38:37;1.27;;;0.80;;
32786;SDS011;19139;49.372;8.580;2023-11-19T04:41:05;1.57;;;1.00;;
32786;SDS011;19139;49.372;8.580;2023-11-19T04:43:32;1.20;;;0.90;;
32786;SDS011;19139;49.372;8.580;2023-11-19T04:45:59;2.10;;;1.20;;
32786;SDS011;19139;49.372;8.580;2023-11-19T04:48:27;1.67;;;1.23;;
32786;SDS011;19139;49.372;8.580;2023-11-19T04:51:07;1.57;;;0.97;;
32786;SDS011;19139;49.372;8.580;2023-11-19T04:53:37;1.37;;;0.73;;
32786;SDS011;19139;49.372;8.580;2023-11-19T04:56:11;1.10;;;1.00;;
32786;SDS011;19139;49.372;8.580;2023-11-19T04:58:39;1.07;;;0.80;;
32786;SDS011;19139;49.372;8.580;2023-11-19T05:01:12;1.20;;;0.80;;
32786;SDS011;19139;49.372;8.580;2023-11-19T05:03:41;1.10;;;0.90;;
32786;SDS011;19139;49.372;8.580;2023-11-19T05:06:08;1.10;;;1.00;;
32786;SDS011;19139;49.372;8.580;2023-11-19T05:08:35;0.80;;;0.67;;
32786;SDS011;19139;49.372;8.580;2023-11-19T05:11:03;0.97;;;0.80;;
32786;SDS011;19139;49.372;8.580;2023-11-19T05:13:32;1.23;;;0.90;;
32786;SDS011;19139;49.372;8.580;2023-11-19T05:15:59;0.73;;;0.70;;
32786;SDS011;19139;49.372;8.580;2023-11-19T05:18:26;1.00;;;0.90;;
32786;SDS011;19139;49.372;8.580;2023-11-19T05:20:53;0.97;;;0.70;;
32786;SDS011;19139;49.372;8.580;2023-11-19T05:23:20;1.67;;;1.00;;
32786;SDS011;19139;49.372;8.580;2023-11-19T05:25:47;1.20;;;0.90;;
32786;SDS011;19139;49.372;8.580;2023-11-19T05:28:14;1.17;;;0.57;;
32786;SDS011;19139;49.372;8.580;2023-11-19T05:30:41;0.90;;;0.70;;
32786;SDS011;19139;49.372;8.580;2023-11-19T05:33:09;0.97;;;0.60;;
32786;SDS011;19139;49.372;8.580;2023-11-19T05:35:36;1.63;;;0.80;;
32786;SDS011;19139;49.372;8.580;2023-11-19T05:38:03;1.67;;;0.87;;
32786;SDS011;19139;49.372;8.580;2023-11-19T05:40:30;0.87;;;0.73;;
32786;SDS011;19139;49.372;8.580;2023-11-19T05:42:57;1.47;;;0.93;;
32786;SDS011;19139;49.372;8.580;2023-11-19T05:45:24;1.17;;;0.80;;
32786;SDS011;19139;49.372;8.580;2023-11-19T05:47:51;1.10;;;0.80;;
32786;SDS011;19139;49.372;8.580;2023-11-19T05:50:19;1.10;;;0.67;;
32786;SDS011;19139;49.372;8.580;2023-11-19T05:52:46;0.90;;;0.60;;
32786;SDS011;19139;49.372;8.580;2023-11-19T05:55:13;1.07;;;0.80;;
32786;SDS011;19139;49.372;8.580;2023-11-19T05:57:40;1.20;;;0.80;;
32786;SDS011;19139;49.372;8.580;2023-11-19T06:00:10;1.30;;;0.93;;
32786;SDS011;19139;49.372;8.580;2023-11-19T06:02:39;0.73;;;0.57;;
32786;SDS011;19139;49.372;8.580;2023-11-19T06:05:06;1.20;;;1.00;;
32786;SDS011;19139;49.372;8.580;2023-11-19T06:07:33;1.07;;;0.80;;
32786;SDS011;19139;49.372;8.580;2023-11-19T06:10:02;0.80;;;0.70;;
32786;SDS011;19139;49.372;8.580;2023-11-19T06:12:31;1.03;;;0.70;;
32786;SDS011;19139;49.372;8.580;2023-11-19T06:14:59;0.77;;;0.60;;
32786;SDS011;19139;49.372;8.580;2023-11-19T06:17:26;0.70;;;0.60;;
32786;SDS011;19139;49.372;8.580;2023-11-19T06:19:54;1.03;;;0.53;;
32786;SDS011;19139;49.372;8.580;2023-11-19T06:22:21;0.73;;;0.40;;
32786;SDS011;19139;49.372;8.580;2023-11-19T06:24:48;0.70;;;0.63;;
32786;SDS011;19139;49.372;8.580;2023-11-19T06:27:15;1.23;;;0.83;;
32786;SDS011;19139;49.372;8.580;2023-11-19T06:29:42;0.60;;;0.50;;
32786;SDS011;19139;49.372;8.580;2023-11-19T06:32:09;1.23;;;0.70;;
32786;SDS011;19139;49.372;8.580;2023-11-19T06:34:41;0.90;;;0.80;;
32786;SDS011;19139;49.372;8.580;2023-11-19T06:37:08;1.20;;;0.80;;
32786;SDS011;19139;49.372;8.580;2023-11-19T06:39:35;0.80;;;0.57;;
32786;SDS011;19139;49.372;8.580;2023-11-19T06:42:04;0.70;;;0.70;;
32786;SDS011;19139;49.372;8.580;2023-11-19T06:44:31;0.90;;;0.70;;
32786;SDS011;19139;49.372;8.580;2023-11-19T06:46:58;1.10;;;0.67;;
32786;SDS011;19139;49.372;8.580;2023-11-19T06:49:25;1.03;;;0.70;;
32786;SDS011;19139;49.372;8.580;2023-11-19T06:51:52;0.67;;;0.67;;
32786;SDS011;19139;49.372;8.580;2023-11-19T06:54:20;0.60;;;0.60;;
32786;SDS011;19139;49.372;8.580;2023-11-19T06:56:47;0.73;;;0.50;;
32786;SDS011;19139;49.372;8.580;2023-11-19T06:59:15;1.63;;;0.70;;
32786;SDS011;19139;49.372;8.580;2023-11-19T07:01:42;0.70;;;0.70;;
32786;SDS011;19139;49.372;8.580;2023-11-19T07:04:10;0.73;;;0.60;;
32786;SDS011;19139;49.372;8.580;2023-11-19T07:06:38;0.83;;;0.70;;
32786;SDS011;19139;49.372;8.580;2023-11-19T07:09:09;0.83;;;0.70;;
32786;SDS011;19139;49.372;8.580;2023-11-19T07:11:37;1.07;;;0.70;;
32786;SDS011;19139;49.372;8.580;2023-11-19T07:14:05;1.43;;;0.67;;
32786;SDS011;19139;49.372;8.580;2023-11-19T07:16:33;0.87;;;0.60;;
32786;SDS011;19139;49.372;8.580;2023-11-19T07:19:00;0.97;;;0.70;;
32786;SDS011;19139;49.372;8.580;2023-11-19T07:21:28;0.50;;;0.50;;
32786;SDS011;19139;49.372;8.580;2023-11-19T07:23:55;0.80;;;0.63;;
32786;SDS011;19139;49.372;8.580;2023-11-19T07:26:22;0.83;;;0.70;;
32786;SDS011;19139;49.372;8.580;2023-11-19T07:28:49;0.97;;;0.50;;
32786;SDS011;19139;49.372;8.580;2023-11-19T07:31:17;0.80;;;0.70;;
32786;SDS011;19139;49.372;8.580;2023-11-19T07:33:45;0.60;;;0.47;;
32786;SDS011;19139;49.372;8.580;2023-11-19T07:36:13;0.90;;;0.80;;
32786;SDS011;19139;49.372;8.580;2023-11-19T07:38:41;0.77;;;0.60;;
32786;SDS011;19139;49.372;8.580;2023-11-19T07:41:08;0.90;;;0.70;;
32786;SDS011;19139;49.372;8.580;2023-11-19T07:43:39;0.80;;;0.80;;
32786;SDS011;19139;49.372;8.580;2023-11-19T07:46:10;0.60;;;0.43;;
32786;SDS011;19139;49.372;8.580;2023-11-19T07:48:39;1.10;;;0.80;;
32786;SDS011;19139;49.372;8.580;2023-11-19T07:51:08;0.60;;;0.50;;
32786;SDS011;19139;49.372;8.580;2023-11-19T07:53:35;0.70;;;0.50;;
32786;SDS011;19139;49.372;8.580;2023-11-19T07:56:04;0.60;;;0.60;;
32786;SDS011;19139;49.372;8.580;2023-11-19T07:58:31;0.80;;;0.50;;
32786;SDS011;19139;49.372;8.580;2023-11-19T08:00:58;0.53;;;0.40;;
32786;SDS011;19139;49.372;8.580;2023-11-19T08:03:25;0.73;;;0.50;;
32786;SDS011;19139;49.372;8.580;2023-11-19T08:05:55;1.07;;;0.80;;
32786;SDS011;19139;49.372;8.580;2023-11-19T08:08:23;0.70;;;0.60;;
32786;SDS011;19139;49.372;8.580;2023-11-19T08:10:50;0.90;;;0.60;;
32786;SDS011;19139;49.372;8.580;2023-11-19T08:13:18;0.80;;;0.57;;
32786;SDS011;19139;49.372;8.580;2023-11-19T08:15:47;0.90;;;0.77;;
32786;SDS011;19139;49.372;8.580;2023-11-19T08:18:14;0.63;;;0.40;;
32786;SDS011;19139;49.372;8.580;2023-11-19T08:20:41;1.00;;;0.40;;
32786;SDS011;19139;49.372;8.580;2023-11-19T08:23:10;0.57;;;0.40;;
32786;SDS011;19139;49.372;8.580;2023-11-19T08:25:37;0.50;;;0.50;;
32786;SDS011;19139;49.372;8.580;2023-11-19T08:28:04;0.53;;;0.40;;
32786;SDS011;19139;49.372;8.580;2023-11-19T08:30:31;0.40;;;0.40;;
32786;SDS011;19139;49.372;8.580;2023-11-19T08:32:59;0.70;;;0.70;;
32786;SDS011;19139;49.372;8.580;2023-11-19T08:35:29;0.70;;;0.60;;
32786;SDS011;19139;49.372;8.580;2023-11-19T08:37:56;0.93;;;0.73;;
32786;SDS011;19139;49.372;8.580;2023-11-19T08:40:25;1.20;;;0.53;;
32786;SDS011;19139;49.372;8.580;2023-11-19T08:42:52;1.00;;;0.70;;
32786;SDS011;19139;49.372;8.580;2023-11-19T08:45:19;0.80;;;0.50;;
32786;SDS011;19139;49.372;8.580;2023-11-19T08:47:46;0.90;;;0.60;;
32786;SDS011;19139;49.372;8.580;2023-11-19T08:50:13;0.67;;;0.50;;
32786;SDS011;19139;49.372;8.580;2023-11-19T08:52:40;0.73;;;0.60;;
32786;SDS011;19139;49.372;8.580;2023-11-19T08:55:07;0.50;;;0.47;;
32786;SDS011;19139;49.372;8.580;2023-11-19T08:57:35;0.77;;;0.70;;
32786;SDS011;19139;49.372;8.580;2023-11-19T09:00:03;0.90;;;0.60;;
32786;SDS011;19139;49.372;8.580;2023-11-19T09:02:34;0.93;;;0.60;;
32786;SDS011;19139;49.372;8.580;2023-11-19T09:05:04;0.73;;;0.63;;
32786;SDS011;19139;49.372;8.580;2023-11-19T09:07:31;1.73;;;0.40;;
32786;SDS011;19139;49.372;8.580;2023-11-19T09:09:58;0.80;;;0.70;;
32786;SDS011;19139;49.372;8.580;2023-11-19T09:12:25;0.60;;;0.50;;
32786;SDS011;19139;49.372;8.580;2023-11-19T09:14:52;0.60;;;0.47;;
32786;SDS011;19139;49.372;8.580;2023-11-19T09:17:20;0.73;;;0.40;;
32786;SDS011;19139;49.372;8.580;2023-11-19T09:19:47;0.93;;;0.67;;
32786;SDS011;19139;49.372;8.580;2023-11-19T09:22:14;0.70;;;0.60;;
32786;SDS011;19139;49.372;8.580;2023-11-19T09:24:42;0.60;;;0.53;;
32786;SDS011;19139;49.372;8.580;2023-11-19T09:27:10;1.73;;;1.00;;
32786;SDS011;19139;49.372;8.580;2023-11-19T09:29:38;1.00;;;0.50;;
32786;SDS011;19139;49.372;8.580;2023-11-19T09:32:05;0.70;;;0.67;;
32786;SDS011;19139;49.372;8.580;2023-11-19T09:34:32;0.80;;;0.40;;
32786;SDS011;19139;49.372;8.580;2023-11-19T09:36:59;0.67;;;0.43;;
32786;SDS011;19139;49.372;8.580;2023-11-19T09:39:27;1.77;;;0.70;;
32786;SDS011;19139;49.372;8.580;2023-11-19T09:41:54;1.53;;;0.57;;
32786;SDS011;19139;49.372;8.580;2023-11-19T09:44:21;1.00;;;0.70;;
32786;SDS011;19139;49.372;8.580;2023-11-19T09:46:48;1.23;;;0.60;;
32786;SDS011;19139;49.372;8.580;2023-11-19T09:49:16;2.07;;;0.53;;
32786;SDS011;19139;49.372;8.580;2023-11-19T09:52:01;1.67;;;0.70;;
32786;SDS011;19139;49.372;8.580;2023-11-19T09:54:29;0.77;;;0.50;;
32786;SDS011;19139;49.372;8.580;2023-11-19T09:56:56;1.40;;;0.67;;
32786;SDS011;19139;49.372;8.580;2023-11-19T09:59:29;1.00;;;0.50;;
32786;SDS011;19139;49.372;8.580;2023-11-19T10:01:57;1.73;;;0.70;;
32786;SDS011;19139;49.372;8.580;2023-11-19T10:04:24;1.43;;;0.60;;
32786;SDS011;19139;49.372;8.580;2023-11-19T10:06:52;1.73;;;0.60;;
32786;SDS011;19139;49.372;8.580;2023-11-19T10:09:19;0.80;;;0.40;;
32786;SDS011;19139;49.372;8.580;2023-11-19T10:11:47;0.93;;;0.60;;
32786;SDS011;19139;49.372;8.580;2023-11-19T10:14:14;1.33;;;0.47;;
32786;SDS011;19139;49.372;8.580;2023-11-19T10:16:41;0.80;;;0.70;;
32786;SDS011;19139;49.372;8.580;2023-11-19T10:19:12;1.73;;;0.63;;
32786;SDS011;19139;49.372;8.580;2023-11-19T10:21:46;1.17;;;0.43;;
32786;SDS011;19139;49.372;8.580;2023-11-19T10:24:14;1.20;;;0.50;;
32786;SDS011;19139;49.372;8.580;2023-11-19T10:26:56;1.17;;;0.80;;
32786;SDS011;19139;49.372;8.580;2023-11-19T10:29:23;2.37;;;0.70;;
32786;SDS011;19139;49.372;8.580;2023-11-19T10:31:57;3.37;;;1.10;;
32786;SDS011;19139;49.372;8.580;2023-11-19T10:34:44;1.33;;;0.50;;
32786;SDS011;19139;49.372;8.580;2023-11-19T10:37:27;1.10;;;0.70;;
32786;SDS011;19139;49.372;8.580;2023-11-19T10:39:55;1.27;;;0.60;;
32786;SDS011;19139;49.372;8.580;2023-11-19T10:42:23;1.10;;;0.60;;
32786;SDS011;19139;49.372;8.580;2023-11-19T10:44:50;1.50;;;0.60;;
32786;SDS011;19139;49.372;8.580;2023-11-19T10:47:20;1.40;;;1.00;;
32786;SDS011;19139;49.372;8.580;2023-11-19T10:49:52;2.00;;;0.60;;
32786;SDS011;19139;49.372;8.580;2023-11-19T10:52:19;1.63;;;0.53;;
32786;SDS011;19139;49.372;8.580;2023-11-19T10:54:50;1.50;;;0.50;;
32786;SDS011;19139;49.372;8.580;2023-11-19T10:57:20;0.97;;;0.70;;
32786;SDS011;19139;49.372;8.580;2023-11-19T10:59:47;1.30;;;0.70;;
32786;SDS011;19139;49.372;8.580;2023-11-19T11:02:17;1.37;;;0.80;;
32786;SDS011;19139;49.372;8.580;2023-11-19T11:04:46;1.77;;;0.73;;
32786;SDS011;19139;49.372;8.580;2023-11-19T11:07:14;1.00;;;0.50;;
32786;SDS011;19139;49.372;8.580;2023-11-19T11:09:42;1.00;;;0.50;;
32786;SDS011;19139;49.372;8.580;2023-11-19T11:12:11;2.27;;;0.43;;
32786;SDS011;19139;49.372;8.580;2023-11-19T11:14:39;1.10;;;0.53;;
32786;SDS011;19139;49.372;8.580;2023-11-19T11:17:07;2.23;;;0.57;;
32786;SDS011;19139;49.372;8.580;2023-11-19T11:19:36;1.47;;;0.70;;
32786;SDS011;19139;49.372;8.580;2023-11-19T11:22:03;1.33;;;0.73;;
32786;SDS011;19139;49.372;8.580;2023-11-19T11:24:41;1.53;;;0.63;;
32786;SDS011;19139;49.372;8.580;2023-11-19T11:27:22;2.10;;;0.53;;
32786;SDS011;19139;49.372;8.580;2023-11-19T11:32:42;2.20;;;0.67;;
32786;SDS011;19139;49.372;8.580;2023-11-19T11:37:39;1.33;;;0.60;;
32786;SDS011;19139;49.372;8.580;2023-11-19T11:40:14;0.80;;;0.50;;
32786;SDS011;19139;49.372;8.580;2023-11-19T11:42:42;1.10;;;0.60;;
32786;SDS011;19139;49.372;8.580;2023-11-19T11:45:10;1.13;;;0.63;;
32786;SDS011;19139;49.372;8.580;2023-11-19T11:50:13;3.63;;;1.83;;
32786;SDS011;19139;49.372;8.580;2023-11-19T11:55:26;3.40;;;1.07;;
32786;SDS011;19139;49.372;8.580;2023-11-19T11:57:54;4.13;;;0.80;;
32786;SDS011;19139;49.372;8.580;2023-11-19T12:00:31;3.90;;;1.27;;
32786;SDS011;19139;49.372;8.580;2023-11-19T12:03:01;3.97;;;1.00;;
32786;SDS011;19139;49.372;8.580;2023-11-19T12:05:29;3.40;;;1.13;;
32786;SDS011;19139;49.372;8.580;2023-11-19T12:07:58;3.20;;;0.90;;
32786;SDS011;19139;49.372;8.580;2023-11-19T12:10:31;1.63;;;0.80;;
32786;SDS011;19139;49.372;8.580;2023-11-19T12:12:58;2.40;;;0.90;;
32786;SDS011;19139;49.372;8.580;2023-11-19T12:15:26;2.73;;;0.63;;
32786;SDS011;19139;49.372;8.580;2023-11-19T12:17:54;2.13;;;1.00;;
32786;SDS011;19139;49.372;8.580;2023-11-19T12:20:25;4.30;;;1.03;;
32786;SDS011;19139;49.372;8.580;2023-11-19T12:22:55;3.83;;;1.53;;
32786;SDS011;19139;49.372;8.580;2023-11-19T12:25:22;5.33;;;0.97;;
32786;SDS011;19139;49.372;8.580;2023-11-19T12:27:50;1.67;;;0.60;;
32786;SDS011;19139;49.372;8.580;2023-11-19T12:30:21;1.90;;;0.93;;
32786;SDS011;19139;49.372;8.580;2023-11-19T12:32:50;1.93;;;0.90;;
32786;SDS011;19139;49.372;8.580;2023-11-19T12:35:19;2.37;;;0.97;;
32786;SDS011;19139;49.372;8.580;2023-11-19T12:37:47;1.93;;;1.13;;
32786;SDS011;19139;49.372;8.580;2023-11-19T12:40:18;2.30;;;0.60;;
32786;SDS011;19139;49.372;8.580;2023-11-19T12:42:46;2.90;;;1.40;;
32786;SDS011;19139;49.372;8.580;2023-11-19T12:45:13;2.60;;;0.70;;
32786;SDS011;19139;49.372;8.580;2023-11-19T12:47:41;2.30;;;0.67;;
32786;SDS011;19139;49.372;8.580;2023-11-19T12:50:09;3.73;;;0.90;;
32786;SDS011;19139;49.372;8.580;2023-11-19T12:52:36;2.60;;;0.70;;
32786;SDS011;19139;49.372;8.580;2023-11-19T12:55:04;2.03;;;1.13;;
32786;SDS011;19139;49.372;8.580;2023-11-19T13:00:05;1.33;;;0.67;;
32786;SDS011;19139;49.372;8.580;2023-11-19T13:02:48;3.50;;;0.90;;
32786;SDS011;19139;49.372;8.580;2023-11-19T13:05:29;2.80;;;0.70;;
32786;SDS011;19139;49.372;8.580;2023-11-19T13:08:03;2.03;;;0.83;;
32786;SDS011;19139;49.372;8.580;2023-11-19T13:10:31;1.67;;;0.63;;
32786;SDS011;19139;49.372;8.580;2023-11-19T13:13:05;2.57;;;1.00;;
32786;SDS011;19139;49.372;8.580;2023-11-19T13:15:34;3.10;;;0.77;;
32786;SDS011;19139;49.372;8.580;2023-11-19T13:18:02;3.23;;;1.37;;
32786;SDS011;19139;49.372;8.580;2023-11-19T13:20:29;1.10;;;0.80;;
32786;SDS011;19139;49.372;8.580;2023-11-19T13:22:58;1.87;;;0.70;;
32786;SDS011;19139;49.372;8.580;2023-11-19T13:25:26;3.37;;;0.70;;
32786;SDS011;19139;49.372;8.580;2023-11-19T13:27:54;1.00;;;0.67;;
32786;SDS011;19139;49.372;8.580;2023-11-19T13:30:21;1.90;;;0.93;;
32786;SDS011;19139;49.372;8.580;2023-11-19T13:32:52;1.77;;;0.50;;
32786;SDS011;19139;49.372;8.580;2023-11-19T13:35:21;2.43;;;0.70;;
32786;SDS011;19139;49.372;8.580;2023-11-19T13:37:49;1.50;;;0.60;;
32786;SDS011;19139;49.372;8.580;2023-11-19T13:40:16;0.97;;;0.60;;
32786;SDS011;19139;49.372;8.580;2023-11-19T13:42:43;1.73;;;1.07;;
32786;SDS011;19139;49.372;8.580;2023-11-19T13:45:11;0.87;;;0.50;;
32786;SDS011;19139;49.372;8.580;2023-11-19T13:47:40;0.93;;;0.47;;
32786;SDS011;19139;49.372;8.580;2023-11-19T13:50:11;0.97;;;0.53;;
32786;SDS011;19139;49.372;8.580;2023-11-19T13:52:39;2.17;;;0.80;;
32786;SDS011;19139;49.372;8.580;2023-11-19T13:55:08;1.40;;;0.73;;
32786;SDS011;19139;49.372;8.580;2023-11-19T13:57:38;1.77;;;0.43;;
32786;SDS011;19139;49.372;8.580;2023-11-19T14:00:07;1.10;;;0.30;;
32786;SDS011;19139;49.372;8.580;2023-11-19T14:02:42;0.63;;;0.30;;
32786;SDS011;19139;49.372;8.580;2023-11-19T14:05:10;1.93;;;0.60;;
32786;SDS011;19139;49.372;8.580;2023-11-19T14:07:37;2.23;;;0.63;;
32786;SDS011;19139;49.372;8.580;2023-11-19T14:10:05;1.07;;;0.50;;
32786;SDS011;19139;49.372;8.580;2023-11-19T14:12:32;0.80;;;0.40;;
32786;SDS011;19139;49.372;8.580;2023-11-19T14:14:59;1.70;;;0.90;;
32786;SDS011;19139;49.372;8.580;2023-11-19T14:17:27;2.00;;;0.50;;
32786;SDS011;19139;49.372;8.580;2023-11-19T14:19:54;1.93;;;0.50;;
32786;SDS011;19139;49.372;8.580;2023-11-19T14:22:21;1.33;;;0.53;;
32786;SDS011;19139;49.372;8.580;2023-11-19T14:24:48;1.20;;;0.60;;
32786;SDS011;19139;49.372;8.580;2023-11-19T14:27:15;1.23;;;0.60;;
32786;SDS011;19139;49.372;8.580;2023-11-19T14:29:43;1.43;;;0.60;;
32786;SDS011;19139;49.372;8.580;2023-11-19T14:32:11;1.10;;;0.70;;
32786;SDS011;19139;49.372;8.580;2023-11-19T14:34:38;1.20;;;0.63;;
32786;SDS011;19139;49.372;8.580;2023-11-19T14:37:05;1.50;;;0.60;;
32786;SDS011;19139;49.372;8.580;2023-11-19T14:39:33;1.13;;;0.50;;
32786;SDS011;19139;49.372;8.580;2023-11-19T14:42:00;0.87;;;0.40;;
32786;SDS011;19139;49.372;8.580;2023-11-19T14:44:30;1.90;;;0.70;;
32786;SDS011;19139;49.372;8.580;2023-11-19T14:46:57;1.27;;;0.50;;
32786;SDS011;19139;49.372;8.580;2023-11-19T14:49:25;1.33;;;0.40;;
32786;SDS011;19139;49.372;8.580;2023-11-19T14:51:53;1.17;;;0.60;;
32786;SDS011;19139;49.372;8.580;2023-11-19T14:54:20;1.33;;;0.50;;
32786;SDS011;19139;49.372;8.580;2023-11-19T14:56:47;2.00;;;0.60;;
32786;SDS011;19139;49.372;8.580;2023-11-19T14:59:14;0.97;;;0.63;;
32786;SDS011;19139;49.372;8.580;2023-11-19T15:01:42;0.93;;;0.33;;
32786;SDS011;19139;49.372;8.580;2023-11-19T15:04:11;2.37;;;0.50;;
32786;SDS011;19139;49.372;8.580;2023-11-19T15:06:38;0.93;;;0.57;;
32786;SDS011;19139;49.372;8.580;2023-11-19T15:09:05;2.10;;;0.50;;
32786;SDS011;19139;49.372;8.580;2023-11-19T15:11:35;1.00;;;0.47;;